Flight Track Log - Related Links

Times and Time Zones

All times are in EDT time to prevent confusion due to time zone crossing. See the GPD95 flight status page for this flight to view local times or setup timezone preferences in your user account.

Time Position Orientation Groundspeed Altitude Reporting Facility
EDT Latitude Longitude Course Direction KTS MPH feet Rate Location/Type
Fri 07:41:34 PM 40.9000 -74.0167 21° North 103 119 1,500  Level New York TRACON
Fri 07:42:34 PM 40.9167 -73.9833 57° Northeast 105 121 2,200 650 Climbing New York TRACON
Fri 07:43:34 PM 40.9333 -73.9500 56° Northeast 95 109 2,800 600 Climbing New York TRACON
Fri 07:44:34 PM 40.9500 -73.9333 37° Northeast 94 108 3,400 350 Climbing New York TRACON
Fri 07:45:34 PM 40.9667 -73.9000 56° Northeast 122 140 3,500 300 Climbing New York TRACON
Fri 07:46:34 PM 40.9833 -73.8500 66° East 117 135 4,000 450 Climbing New York TRACON
Fri 07:47:34 PM 40.9833 -73.8167 90° East 111 128 4,400 397 Climbing New York TRACON
Fri 07:48:35 PM 41.0000 -73.7833 56° Northeast 113 130 4,800 446 Climbing New York TRACON
Fri 07:49:35 PM 41.0000 -73.7333 90° East 111 128 5,300 350 Climbing New York TRACON
Fri 07:50:35 PM 41.0000 -73.7000 90° East 125 144 5,500 100 Climbing New York TRACON
Fri 07:51:35 PM 41.0167 -73.6500 66° East 135 155 5,500  Level New York TRACON
Fri 07:52:35 PM 41.0333 -73.6167 56° Northeast 137 158 5,500 150 Level New York TRACON
Fri 07:53:35 PM 41.0500 -73.5667 66° East 127 146 5,800 350 Climbing New York TRACON
Fri 07:54:35 PM 41.0667 -73.5333 56° Northeast 123 142 6,200 450 Climbing New York TRACON
Fri 07:55:35 PM 41.0833 -73.4833 66° East 118 136 6,700 500 Climbing New York TRACON
Fri 07:56:35 PM 41.1167 -73.4500 37° Northeast 115 132 7,200 400 Climbing New York TRACON
Fri 07:57:35 PM 41.1333 -73.4167 56° Northeast 119 137 7,500 150 Climbing New York TRACON
Fri 07:58:35 PM 41.1500 -73.3833 56° Northeast 134 154 7,500  Level New York TRACON
Fri 07:59:35 PM 41.1667 -73.3333 66° East 142 163 7,500  Level New York TRACON
Fri 08:00:35 PM 41.2000 -73.3000 37° Northeast 146 168 7,500  Level New York TRACON
Fri 08:01:35 PM 41.2167 -73.2500 66° East 143 165 7,500  Level New York TRACON
Fri 08:02:35 PM 41.2333 -73.2167 56° Northeast 145 167 7,500  Level New York TRACON
Fri 08:03:35 PM 41.2333 -73.1500 90° East 143 165 7,500  Level New York TRACON
Fri 08:04:35 PM 41.2333 -73.1000 90° East 144 166 7,500  Level New York TRACON
Fri 08:05:35 PM 41.2333 -73.0500 90° East 141 162 7,500  Level New York TRACON
Fri 08:06:35 PM 41.2333 -73.0000 90° East 140 161 7,500  Level New York TRACON
Fri 08:07:35 PM 41.2500 -72.9500 66° East 144 166 7,500  Level New York TRACON
Fri 08:08:35 PM 41.2500 -72.9000 90° East 144 166 7,500  Level New York TRACON
Fri 08:09:35 PM 41.2500 -72.8500 90° East 146 168 7,500  Level New York TRACON
Fri 08:10:35 PM 41.2500 -72.8000 90° East 144 166 7,500 48 Level New York TRACON
Fri 08:11:41 PM 41.2558 -72.7383 83° East 142 163 7,600 -83 Climbing Boston Center
Fri 08:14:11 PM 41.2667 -72.6000 84° East 154 177 7,200 -143 Descending New York TRACON
Fri 08:15:11 PM 41.2833 -72.5500 66° East 159 183 7,100 -64 Descending New York TRACON
Fri 08:15:45 PM 41.2811 -72.5203 96° East 150 173 7,100 -50 Level Boston Center
Fri 08:17:10 PM 41.2875 -72.4428 84° East 149 171 7,000 -41 Descending Boston Center
Fri 08:18:11 PM 41.2939 -72.3903 81° East 159 183 7,000  Level Boston Center
Fri 08:18:53 PM 41.2978 -72.3517 82° East 144 166 7,000  Level Boston Center
Fri 08:20:12 PM 41.3061 -72.2825 81° East 142 163 7,000  Level Boston Center
Fri 08:21:07 PM 41.3103 -72.2383 83° East 147 169 7,000  Level Boston Center
Fri 08:22:01 PM 41.3164 -72.1886 81° East 145 167 7,000  Level Boston Center
Fri 08:23:02 PM 41.3247 -72.1333 79° East 145 167 7,000  Level Boston Center
Fri 08:24:03 PM 41.3286 -72.0808 84° East 147 169 7,000  Level Boston Center
Fri 08:24:57 PM 41.3347 -72.0308 81° East 145 167 7,000  Level Boston Center
Fri 08:25:58 PM 41.3344 -71.9756 90° East 147 169 7,000  Level Boston Center
Fri 08:27:05 PM 41.3383 -71.9175 85° East 146 168 7,000  Level Boston Center
Fri 08:27:59 PM 41.3381 -71.8678 90° East 146 168 7,000  Level Boston Center
Fri 08:28:54 PM 41.3419 -71.8153 84° East 148 170 7,000  Level Boston Center
Fri 08:29:54 PM 41.3458 -71.7628 84° East 148 170 7,000  Level Boston Center
Fri 08:30:49 PM 41.3456 -71.7103 90° East 158 182 7,000  Level Boston Center
Fri 08:32:02 PM 41.3492 -71.6436 86° East 148 170 7,000  Level Boston Center
Fri 08:33:02 PM 41.3511 -71.5883 87° East 159 183 7,000  Level Boston Center
Fri 08:34:09 PM 41.3567 -71.5275 83° East 148 170 7,000  Level Boston Center
Fri 08:35:04 PM 41.3583 -71.4778 87° East 150 173 7,000  Level Boston Center
Fri 08:36:10 PM 41.3600 -71.4169 88° East 151 174 7,000  Level Boston Center
Fri 08:37:11 PM 41.3636 -71.3586 85° East 149 171 7,000  Level Boston Center
Fri 08:38:12 PM 41.3672 -71.3061 85° East 151 174 7,000  Level Boston Center
Fri 08:39:06 PM 41.3689 -71.2508 88° East 151 174 7,000  Level Boston Center
Fri 08:40:13 PM 41.3722 -71.1925 86° East 144 166 7,000  Level Boston Center
Fri 08:41:20 PM 41.3736 -71.1289 88° East 150 173 7,000  Level Boston Center
Fri 08:43:00 PM 41.3689 -71.0523 95° East  Level FlightAware Approximate
Fri 08:50:00 PM 41.3783 -70.7289 87° East  Level FlightAware Approximate
Fri 08:51:00 PM 41.3801 -70.6829 87° East  Level FlightAware Approximate
Fri 08:52:00 PM 41.3819 -70.6368 87° East  Level FlightAware Approximate
Fri 08:53:00 PM 41.3833 -70.6000 87° East  Level FlightAware Approximate
Fri 08:54:00 PM 41.3934 -70.6139 87° East  Level Estimated
Fri 08:55:00 PM 41.3934 -70.6139 87° East  Level Estimated
Fri 08:56:00 PM 41.3934 -70.6139 87° East  Level Estimated
Fri 08:57:00 PM 41.3934 -70.6139 87° East  Level Estimated
Fri 08:58:00 PM 41.3934 -70.6139 87° East  Level Estimated
Fri 08:59:00 PM 41.3934 -70.6139 87° East  Level Estimated
Fri 09:00:00 PM 41.3934 -70.6139 87° East  Level Estimated
Fri 09:01:00 PM 41.3934 -70.6139 87° East  Level Estimated
Fri 09:02:00 PM 41.3934 -70.6139 87° East  Level Estimated
Fri 09:03:00 PM 41.3934 -70.6139 87° East  Level Estimated
Fri 09:04:00 PM 41.3934 -70.6139 87° East  Level Estimated

Login

Don't have an account? Register now (free) for customized features, flight alerts, and more!